createdAt,value
2019-05-30T00:00:05.838Z,101839.45
2019-05-30T00:02:23.719Z,101840.98
2019-05-30T00:04:56.111Z,101833.27
2019-05-30T00:07:28.075Z,101835.06
2019-05-30T00:10:00.592Z,101840.12
2019-05-30T00:12:32.492Z,101841.49
2019-05-30T00:15:06.448Z,101843.55
2019-05-30T00:17:38.556Z,101847.00
2019-05-30T00:20:10.774Z,101847.19
2019-05-30T00:22:42.846Z,101852.56
2019-05-30T00:25:14.912Z,101856.81
2019-05-30T00:27:46.779Z,101857.42
2019-05-30T00:30:24.473Z,101854.37
2019-05-30T00:32:52.325Z,101854.30
2019-05-30T00:35:24.223Z,101855.72
2019-05-30T00:37:56.115Z,101859.41
2019-05-30T00:40:28.002Z,101860.30
2019-05-30T00:43:00.075Z,101861.00
2019-05-30T00:45:31.997Z,101864.69
2019-05-30T00:48:04.487Z,101870.86
2019-05-30T00:50:36.283Z,101868.44
2019-05-30T00:53:08.349Z,101864.19
2019-05-30T00:55:40.382Z,101862.34
2019-05-30T00:58:12.256Z,101866.31
2019-05-30T01:00:44.489Z,101859.05
2019-05-30T01:03:16.376Z,101861.45
2019-05-30T01:05:48.230Z,101853.55
2019-05-30T01:08:20.022Z,101859.63
2019-05-30T01:10:51.891Z,101853.91
2019-05-30T01:13:23.681Z,101857.88
2019-05-30T01:15:56.837Z,101852.01
2019-05-30T01:18:28.817Z,101854.66
2019-05-30T01:21:01.320Z,101848.55
2019-05-30T01:23:34.272Z,101849.12
2019-05-30T01:26:06.064Z,101851.75
2019-05-30T01:28:37.951Z,101855.38
2019-05-30T01:31:11.543Z,101850.00
2019-05-30T01:33:43.404Z,101853.05
2019-05-30T01:36:15.213Z,101851.20
2019-05-30T01:38:47.076Z,101848.78
2019-05-30T01:41:19.257Z,101850.91
2019-05-30T01:43:51.140Z,101852.39
2019-05-30T01:46:22.951Z,101854.52
2019-05-30T01:48:54.816Z,101858.06
2019-05-30T01:51:26.611Z,101852.67
2019-05-30T01:53:58.439Z,101859.47
2019-05-30T01:56:30.241Z,101856.73
2019-05-30T01:59:02.662Z,101863.38
2019-05-30T02:01:34.615Z,101853.47
2019-05-30T02:04:07.404Z,101860.75
2019-05-30T02:06:39.363Z,101858.20
2019-05-30T02:09:11.764Z,101856.20
2019-05-30T02:11:43.733Z,101858.16
2019-05-30T02:14:15.581Z,101857.27
2019-05-30T02:16:47.365Z,101857.20
2019-05-30T02:19:20.351Z,101856.92
2019-05-30T02:21:52.130Z,101855.20
2019-05-30T02:24:24.026Z,101857.25
2019-05-30T02:26:55.880Z,101860.33
2019-05-30T02:29:27.759Z,101864.27
2019-05-30T02:32:00.953Z,101864.52
2019-05-30T02:34:33.109Z,101858.77
2019-05-30T02:37:06.116Z,101869.28
2019-05-30T02:39:38.766Z,101867.23
2019-05-30T02:42:11.681Z,101875.10
2019-05-30T02:44:43.673Z,101878.83
2019-05-30T02:47:15.480Z,101880.72
2019-05-30T02:49:48.399Z,101879.86
2019-05-30T02:52:20.284Z,101882.24
2019-05-30T02:54:52.149Z,101885.30
2019-05-30T02:57:24.026Z,101885.94
2019-05-30T02:59:55.847Z,101885.15
2019-05-30T03:02:27.623Z,101885.76
2019-05-30T03:04:59.472Z,101886.89
2019-05-30T03:07:31.481Z,101897.63
2019-05-30T03:10:05.099Z,101892.72
2019-05-30T03:12:37.177Z,101892.66
2019-05-30T03:15:12.211Z,101899.38
2019-05-30T03:17:42.740Z,101893.36
2019-05-30T03:20:22.561Z,101896.05
2019-05-30T03:22:49.274Z,101901.11
2019-05-30T03:25:21.166Z,101897.54
2019-05-30T03:27:53.031Z,101891.16
2019-05-30T03:30:27.984Z,101899.13
2019-05-30T03:33:07.322Z,101897.39
2019-05-30T03:35:40.983Z,101905.45
2019-05-30T03:38:07.770Z,101905.39
2019-05-30T03:40:39.204Z,101903.31
2019-05-30T03:43:11.732Z,101900.87
2019-05-30T03:45:45.392Z,101899.62
2019-05-30T03:48:18.598Z,101899.67
2019-05-30T03:50:52.589Z,101907.98
2019-05-30T03:53:24.646Z,101911.61
2019-05-30T03:56:02.286Z,101903.09
2019-05-30T03:58:45.100Z,101904.10
2019-05-30T04:01:22.505Z,101904.89
2019-05-30T04:04:01.187Z,101907.27
2019-05-30T04:06:37.191Z,101904.98
2019-05-30T04:09:12.396Z,101902.30
2019-05-30T04:12:10.629Z,101904.25
2019-05-30T04:14:43.776Z,101907.89
2019-05-30T04:17:17.664Z,101910.95
2019-05-30T04:19:49.202Z,101913.00
2019-05-30T04:22:21.109Z,101917.86
2019-05-30T04:24:52.967Z,101912.45
2019-05-30T04:27:24.774Z,101911.09
2019-05-30T04:29:56.595Z,101910.67
2019-05-30T04:32:28.423Z,101912.63
2019-05-30T04:35:00.228Z,101906.97
2019-05-30T04:37:32.365Z,101910.98
2019-05-30T04:40:04.259Z,101911.40
2019-05-30T04:42:36.446Z,101921.09
2019-05-30T04:45:09.638Z,101920.79
2019-05-30T04:47:41.888Z,101927.70
2019-05-30T04:50:14.405Z,101932.96
2019-05-30T04:52:46.689Z,101929.20
2019-05-30T04:55:22.323Z,101934.56
2019-05-30T04:57:52.212Z,101935.88
2019-05-30T05:00:24.004Z,101933.02
2019-05-30T05:02:56.376Z,101929.78
2019-05-30T05:05:28.183Z,101932.39
2019-05-30T05:08:00.002Z,101927.95
2019-05-30T05:10:31.781Z,101926.22
2019-05-30T05:13:03.694Z,101930.86
2019-05-30T05:15:35.510Z,101935.00
2019-05-30T05:18:07.669Z,101932.61
2019-05-30T05:20:39.475Z,101934.34
2019-05-30T05:23:11.328Z,101936.39
2019-05-30T05:25:43.188Z,101939.98
2019-05-30T05:28:15.750Z,101940.07
2019-05-30T05:30:48.294Z,101945.17
2019-05-30T05:33:20.549Z,101948.55
2019-05-30T05:35:53.542Z,101950.47
2019-05-30T05:38:25.407Z,101952.32
2019-05-30T05:40:57.209Z,101950.09
2019-05-30T05:43:29.014Z,101953.63
2019-05-30T05:46:00.810Z,101947.27
2019-05-30T05:48:32.681Z,101956.60
2019-05-30T05:51:04.722Z,101952.94
2019-05-30T05:53:36.676Z,101953.81
2019-05-30T05:56:08.469Z,101955.36
2019-05-30T05:58:40.350Z,101953.25
2019-05-30T06:01:12.230Z,101951.09
2019-05-30T06:03:44.229Z,101944.59
2019-05-30T06:06:17.155Z,101951.48
2019-05-30T06:08:49.133Z,101947.48
2019-05-30T06:11:21.014Z,101953.87
2019-05-30T06:13:52.810Z,101947.70
2019-05-30T06:16:24.673Z,101945.36
2019-05-30T06:18:56.480Z,101955.80
2019-05-30T06:21:28.295Z,101952.30
2019-05-30T06:24:01.151Z,101955.11
2019-05-30T06:26:33.024Z,101950.25
2019-05-30T06:29:04.926Z,101952.41
2019-05-30T06:31:36.784Z,101957.31
2019-05-30T06:34:08.570Z,101959.39
2019-05-30T06:36:40.373Z,101963.16
2019-05-30T06:39:12.187Z,101962.83
2019-05-30T06:42:15.295Z,101964.39
2019-05-30T06:44:52.642Z,101964.84
2019-05-30T06:47:24.535Z,101963.00
2019-05-30T06:49:56.346Z,101965.02
2019-05-30T06:52:29.158Z,101973.56
2019-05-30T06:55:01.089Z,101972.46
2019-05-30T06:57:34.099Z,101971.45
2019-05-30T07:00:07.245Z,101970.89
2019-05-30T07:02:39.206Z,101966.27
2019-05-30T07:05:11.918Z,101967.70
2019-05-30T07:07:45.529Z,101968.67
2019-05-30T07:10:17.732Z,101968.05
2019-05-30T07:12:49.639Z,101962.95
2019-05-30T07:15:21.605Z,101967.48
2019-05-30T07:17:53.475Z,101968.45
2019-05-30T07:20:25.593Z,101963.77
2019-05-30T07:22:57.521Z,101959.58
2019-05-30T07:25:29.967Z,101954.81
2019-05-30T07:28:01.789Z,101962.28
2019-05-30T07:30:34.231Z,101963.24
2019-05-30T07:33:06.173Z,101961.78
2019-05-30T07:35:38.330Z,101962.05
2019-05-30T07:38:10.379Z,101956.70
2019-05-30T07:40:42.226Z,101952.36
2019-05-30T07:43:14.100Z,101951.85
2019-05-30T07:45:57.397Z,101953.58
2019-05-30T07:48:19.483Z,101952.50
2019-05-30T07:50:52.102Z,101949.61
2019-05-30T07:53:24.507Z,101964.52
2019-05-30T07:55:56.357Z,101966.12
2019-05-30T07:58:29.082Z,101961.63
2019-05-30T08:01:00.870Z,101957.80
2019-05-30T08:03:34.699Z,101960.55
2019-05-30T08:06:07.219Z,101957.66
2019-05-30T08:08:39.008Z,101968.87
2019-05-30T08:11:12.066Z,101963.57
2019-05-30T08:13:43.940Z,101958.03
2019-05-30T08:16:15.758Z,101964.21
2019-05-30T08:18:47.702Z,101962.23
2019-05-30T08:21:19.501Z,101966.42
2019-05-30T08:23:51.374Z,101959.50
2019-05-30T08:26:23.168Z,101959.14
2019-05-30T08:28:56.013Z,101959.14
2019-05-30T08:31:28.583Z,101954.08
2019-05-30T08:34:00.557Z,101956.80
2019-05-30T08:36:32.831Z,101958.27
2019-05-30T08:39:06.575Z,101959.28
2019-05-30T08:41:39.474Z,101962.13
2019-05-30T08:44:11.410Z,101963.97
2019-05-30T08:46:43.212Z,101952.70
2019-05-30T08:49:14.996Z,101961.98
2019-05-30T08:51:46.805Z,101962.70
2019-05-30T08:54:18.693Z,101960.12
2019-05-30T08:56:50.512Z,101957.25
2019-05-30T08:59:22.368Z,101951.06
2019-05-30T09:01:54.186Z,101960.30
2019-05-30T09:04:26.164Z,101945.58
2019-05-30T09:06:58.028Z,101946.59
2019-05-30T09:09:29.907Z,101942.27
2019-05-30T09:12:01.860Z,101945.34
2019-05-30T09:14:33.785Z,101945.13
2019-05-30T09:17:05.687Z,101937.08
2019-05-30T09:19:38.452Z,101931.06
2019-05-30T09:22:11.637Z,101934.22
2019-05-30T09:24:44.055Z,101929.84
2019-05-30T09:27:15.952Z,101922.37
2019-05-30T09:29:48.272Z,101924.25
2019-05-30T09:32:20.210Z,101931.37
2019-05-30T09:34:52.974Z,101919.95
2019-05-30T09:37:24.840Z,101923.95
2019-05-30T09:39:56.623Z,101926.81
2019-05-30T09:42:28.472Z,101925.55
2019-05-30T09:45:01.345Z,101920.48
2019-05-30T09:47:33.293Z,101922.40
2019-05-30T09:50:05.975Z,101919.97
2019-05-30T09:52:37.778Z,101913.61
2019-05-30T09:55:09.925Z,101915.81
2019-05-30T09:57:43.039Z,101913.62
2019-05-30T10:00:17.487Z,101911.45
2019-05-30T10:02:50.497Z,101913.55
2019-05-30T10:05:24.661Z,101910.81
2019-05-30T10:07:56.828Z,101900.75
2019-05-30T10:10:28.889Z,101909.03
2019-05-30T10:13:00.762Z,101906.23
2019-05-30T10:15:32.710Z,101903.34
2019-05-30T10:18:04.900Z,101900.22
2019-05-30T10:20:36.781Z,101903.08
2019-05-30T10:23:08.663Z,101907.02
2019-05-30T10:25:40.575Z,101903.50
2019-05-30T10:28:12.467Z,101901.78
2019-05-30T10:30:50.939Z,101898.22
2019-05-30T10:33:18.985Z,101897.13
2019-05-30T10:35:51.651Z,101896.89
2019-05-30T10:38:24.084Z,101895.08
2019-05-30T10:40:56.096Z,101892.88
2019-05-30T10:43:28.048Z,101891.23
2019-05-30T10:45:59.926Z,101893.98
2019-05-30T10:48:31.789Z,101889.19
2019-05-30T10:51:03.745Z,101884.70
2019-05-30T10:53:37.633Z,101884.22
2019-05-30T10:56:09.184Z,101879.32
2019-05-30T10:58:40.986Z,101875.06
2019-05-30T11:01:12.943Z,101871.92
2019-05-30T11:03:45.832Z,101877.87
2019-05-30T11:06:30.470Z,101873.57
2019-05-30T11:09:04.724Z,101872.70
2019-05-30T11:11:37.249Z,101870.44
2019-05-30T11:14:09.033Z,101868.81
2019-05-30T11:16:41.027Z,101862.48
2019-05-30T11:19:12.882Z,101860.31
2019-05-30T11:21:44.671Z,101859.80
2019-05-30T11:24:16.454Z,101860.98
2019-05-30T11:26:50.443Z,101862.00
2019-05-30T11:29:21.754Z,101860.26
2019-05-30T11:31:54.888Z,101861.00
2019-05-30T11:34:26.946Z,101857.33
2019-05-30T11:36:59.327Z,101855.97
2019-05-30T11:39:32.395Z,101846.54
2019-05-30T11:42:04.273Z,101839.48
2019-05-30T11:44:36.116Z,101837.30
2019-05-30T11:47:08.088Z,101844.65
2019-05-30T11:49:40.060Z,101842.47
2019-05-30T11:52:13.492Z,101837.95
2019-05-30T11:54:45.372Z,101826.84
2019-05-30T11:57:17.145Z,101837.65
2019-05-30T11:59:50.076Z,101828.06
2019-05-30T12:02:22.037Z,101819.66
2019-05-30T12:04:54.526Z,101822.63
2019-05-30T12:07:35.913Z,101823.35
2019-05-30T12:10:01.092Z,101813.45
2019-05-30T12:12:33.158Z,101823.41
2019-05-30T12:15:05.484Z,101817.70
2019-05-30T12:17:37.431Z,101809.80
2019-05-30T12:20:09.715Z,101811.91
2019-05-30T12:22:41.724Z,101807.95
2019-05-30T12:25:13.696Z,101795.76
2019-05-30T12:27:45.570Z,101807.05
2019-05-30T12:30:17.724Z,101796.89
2019-05-30T12:32:52.242Z,101791.56
2019-05-30T12:35:24.432Z,101796.14
2019-05-30T12:38:01.592Z,101796.23
2019-05-30T12:40:29.892Z,101786.58
2019-05-30T12:43:03.708Z,101783.85
2019-05-30T12:45:36.440Z,101783.50
2019-05-30T12:48:08.444Z,101779.51
2019-05-30T12:50:40.513Z,101785.27
2019-05-30T12:53:12.393Z,101783.94
2019-05-30T12:55:44.370Z,101778.77
2019-05-30T12:58:16.251Z,101779.81
2019-05-30T13:00:48.160Z,101776.73
2019-05-30T13:03:20.035Z,101770.55
2019-05-30T13:05:51.902Z,101777.89
2019-05-30T13:08:23.701Z,101778.10
2019-05-30T13:10:55.651Z,101765.05
2019-05-30T13:13:27.501Z,101762.86
2019-05-30T13:16:01.061Z,101767.58
2019-05-30T13:18:34.512Z,101763.75
2019-05-30T13:21:06.523Z,101763.52
2019-05-30T13:23:39.395Z,101764.56
2019-05-30T13:26:11.277Z,101771.54
2019-05-30T13:28:44.591Z,101766.39
2019-05-30T13:31:19.829Z,101763.98
2019-05-30T13:33:52.112Z,101759.22
2019-05-30T13:36:23.976Z,101755.75
2019-05-30T13:38:57.035Z,101742.45
2019-05-30T13:41:31.923Z,101754.66
2019-05-30T13:44:06.832Z,101752.14
2019-05-30T13:46:38.604Z,101749.89
2019-05-30T13:49:10.906Z,101743.39
2019-05-30T13:51:43.131Z,101739.14
2019-05-30T13:54:15.121Z,101739.50
2019-05-30T13:56:47.001Z,101741.26
2019-05-30T13:59:19.800Z,101739.30
2019-05-30T14:01:52.959Z,101737.58
2019-05-30T14:04:25.443Z,101734.55
2019-05-30T14:06:57.318Z,101733.92
2019-05-30T14:09:30.385Z,101728.67
2019-05-30T14:12:02.463Z,101724.86
2019-05-30T14:14:34.685Z,101726.35
2019-05-30T14:17:10.405Z,101728.60
2019-05-30T14:19:41.575Z,101731.67
2019-05-30T14:22:13.504Z,101736.59
2019-05-30T14:24:45.283Z,101732.06
2019-05-30T14:27:17.054Z,101729.08
2019-05-30T14:29:48.843Z,101729.40
2019-05-30T14:32:20.710Z,101727.00
2019-05-30T14:34:52.558Z,101728.18
2019-05-30T14:37:24.429Z,101726.36
2019-05-30T14:39:56.215Z,101725.44
2019-05-30T14:42:28.000Z,101729.48
2019-05-30T14:44:59.784Z,101719.83
2019-05-30T14:47:33.694Z,101716.51
2019-05-30T14:50:08.981Z,101712.58
2019-05-30T14:52:41.060Z,101719.55
2019-05-30T14:55:13.416Z,101726.02
2019-05-30T14:57:46.607Z,101722.47
2019-05-30T15:00:19.268Z,101718.72
2019-05-30T15:02:51.213Z,101720.91
2019-05-30T15:05:23.166Z,101720.50
2019-05-30T15:07:55.090Z,101717.22
2019-05-30T15:10:26.890Z,101721.22
2019-05-30T15:12:58.781Z,101719.55
2019-05-30T15:15:30.599Z,101709.97
2019-05-30T15:18:02.467Z,101714.79
2019-05-30T15:20:34.416Z,101714.48
2019-05-30T15:23:07.636Z,101710.63
2019-05-30T15:25:39.594Z,101704.13
2019-05-30T15:28:12.227Z,101721.33
2019-05-30T15:30:44.191Z,101706.84
2019-05-30T15:33:16.601Z,101717.63
2019-05-30T15:35:49.478Z,101710.07
2019-05-30T15:38:21.262Z,101707.09
2019-05-30T15:40:53.066Z,101707.19
2019-05-30T15:43:24.947Z,101709.54
2019-05-30T15:45:56.812Z,101703.63
2019-05-30T15:48:28.622Z,101699.01
2019-05-30T15:51:00.500Z,101697.19
2019-05-30T15:53:32.367Z,101698.16
2019-05-30T15:56:04.489Z,101696.37
2019-05-30T15:58:37.586Z,101699.47
2019-05-30T16:01:09.842Z,101694.63
2019-05-30T16:03:41.734Z,101690.02
2019-05-30T16:06:14.463Z,101689.06
2019-05-30T16:08:46.349Z,101687.04
2019-05-30T16:11:19.109Z,101688.52
2019-05-30T16:13:50.990Z,101685.14
2019-05-30T16:16:38.794Z,101686.20
2019-05-30T16:18:56.462Z,101679.31
2019-05-30T16:21:28.335Z,101684.69
2019-05-30T16:24:00.184Z,101683.01
2019-05-30T16:26:32.072Z,101682.16
2019-05-30T16:29:04.096Z,101684.52
2019-05-30T16:31:35.950Z,101690.69
2019-05-30T16:34:08.098Z,101691.96
2019-05-30T16:36:40.514Z,101688.36
2019-05-30T16:39:12.357Z,101680.87
2019-05-30T16:41:44.222Z,101681.19
2019-05-30T16:44:16.250Z,101688.47
2019-05-30T16:46:48.113Z,101676.93
2019-05-30T16:49:21.094Z,101671.85
2019-05-30T16:51:52.942Z,101665.02
2019-05-30T16:54:24.744Z,101669.17
2019-05-30T16:56:56.606Z,101671.94
2019-05-30T16:59:28.497Z,101669.17
2019-05-30T17:02:00.291Z,101674.67
2019-05-30T17:04:32.158Z,101666.86
2019-05-30T17:07:04.082Z,101666.83
2019-05-30T17:09:35.946Z,101668.04
2019-05-30T17:12:08.085Z,101669.26
2019-05-30T17:14:39.963Z,101668.17
2019-05-30T17:17:11.832Z,101661.45
2019-05-30T17:19:43.692Z,101657.89
2019-05-30T17:22:16.602Z,101658.25
2019-05-30T17:24:48.525Z,101658.28
2019-05-30T17:27:20.321Z,101654.67
2019-05-30T17:29:52.177Z,101646.95
2019-05-30T17:32:23.980Z,101650.80
2019-05-30T17:34:55.838Z,101656.30
2019-05-30T17:37:28.520Z,101655.96
2019-05-30T17:40:00.411Z,101653.89
2019-05-30T17:42:32.275Z,101651.29
2019-05-30T17:45:05.039Z,101654.92
2019-05-30T17:47:37.501Z,101653.91
2019-05-30T17:50:09.783Z,101652.73
2019-05-30T17:52:41.728Z,101649.16
2019-05-30T17:55:13.587Z,101657.38
2019-05-30T17:57:45.461Z,101658.08
2019-05-30T18:00:17.748Z,101656.36
2019-05-30T18:02:50.536Z,101660.53
2019-05-30T18:05:24.477Z,101670.20
2019-05-30T18:07:56.461Z,101663.75
2019-05-30T18:10:29.035Z,101663.41
2019-05-30T18:13:00.983Z,101653.64
2019-05-30T18:15:32.908Z,101659.81
2019-05-30T18:18:05.692Z,101666.14
2019-05-30T18:20:47.656Z,101660.13
2019-05-30T18:23:11.968Z,101662.67
2019-05-30T18:25:43.823Z,101665.92
2019-05-30T18:28:15.719Z,101667.64
2019-05-30T18:30:47.588Z,101673.11
2019-05-30T18:33:19.409Z,101666.61
2019-05-30T18:35:51.296Z,101670.72
2019-05-30T18:38:24.253Z,101669.79
2019-05-30T18:41:10.165Z,101672.64
2019-05-30T18:43:30.837Z,101682.16
2019-05-30T18:46:02.835Z,101676.84
2019-05-30T18:48:34.713Z,101680.41
2019-05-30T18:51:06.523Z,101678.12
2019-05-30T18:53:38.728Z,101679.77
2019-05-30T18:56:10.746Z,101684.51
2019-05-30T18:58:42.741Z,101680.41
2019-05-30T19:01:14.834Z,101679.64
2019-05-30T19:03:47.142Z,101670.50
2019-05-30T19:06:18.938Z,101676.39
2019-05-30T19:08:50.822Z,101681.20
2019-05-30T19:11:28.113Z,101684.42
2019-05-30T19:13:56.668Z,101685.47
2019-05-30T19:16:28.575Z,101677.36
2019-05-30T19:19:00.481Z,101673.75
2019-05-30T19:21:34.056Z,101677.31
2019-05-30T19:24:06.243Z,101684.05
2019-05-30T19:26:38.289Z,101680.54
2019-05-30T19:29:10.209Z,101684.86
2019-05-30T19:31:42.124Z,101683.09
2019-05-30T19:34:14.101Z,101681.02
2019-05-30T19:36:46.093Z,101688.37
2019-05-30T19:39:17.989Z,101690.55
2019-05-30T19:41:56.766Z,101685.14
2019-05-30T19:44:23.509Z,101685.66
2019-05-30T19:46:55.369Z,101691.25
2019-05-30T19:49:28.293Z,101688.42
2019-05-30T19:52:00.376Z,101686.92
2019-05-30T19:54:33.104Z,101681.62
2019-05-30T19:57:06.070Z,101686.42
2019-05-30T19:59:39.875Z,101686.52
2019-05-30T20:02:12.349Z,101678.19
2019-05-30T20:04:44.227Z,101680.41
2019-05-30T20:07:16.185Z,101680.14
2019-05-30T20:10:00.477Z,101676.90
2019-05-30T20:12:21.607Z,101685.80
2019-05-30T20:14:53.584Z,101685.28
2019-05-30T20:17:30.020Z,101684.52
2019-05-30T20:20:01.350Z,101683.31
2019-05-30T20:22:33.944Z,101687.16
2019-05-30T20:25:08.327Z,101686.87
2019-05-30T20:27:40.877Z,101687.22
2019-05-30T20:30:13.183Z,101686.86
2019-05-30T20:32:45.060Z,101685.69
2019-05-30T20:35:16.975Z,101688.47
2019-05-30T20:37:48.871Z,101689.17
2019-05-30T20:40:20.832Z,101690.45
2019-05-30T20:42:52.700Z,101689.08
2019-05-30T20:45:24.595Z,101689.87
2019-05-30T20:47:56.470Z,101691.05
2019-05-30T20:50:28.432Z,101691.22
2019-05-30T20:53:00.286Z,101696.08
2019-05-30T20:55:32.198Z,101687.42
2019-05-30T20:58:05.087Z,101692.50
2019-05-30T21:00:39.820Z,101690.42
2019-05-30T21:03:11.971Z,101693.76
2019-05-30T21:05:45.963Z,101682.31
2019-05-30T21:08:17.912Z,101689.73
2019-05-30T21:10:50.683Z,101689.42
2019-05-30T21:13:22.551Z,101690.36
2019-05-30T21:15:55.252Z,101685.21
2019-05-30T21:18:28.824Z,101688.82
2019-05-30T21:21:00.709Z,101684.75
2019-05-30T21:23:32.576Z,101680.55
2019-05-30T21:26:04.527Z,101685.84
2019-05-30T21:28:36.657Z,101683.16
2019-05-30T21:31:08.454Z,101685.15
2019-05-30T21:33:41.612Z,101683.02
2019-05-30T21:36:13.831Z,101681.44
2019-05-30T21:38:46.081Z,101677.98
2019-05-30T21:41:17.910Z,101680.59
2019-05-30T21:43:49.703Z,101682.47
2019-05-30T21:46:21.715Z,101681.40
2019-05-30T21:48:53.510Z,101676.62
2019-05-30T21:51:25.415Z,101684.03
2019-05-30T21:53:57.246Z,101678.39
2019-05-30T21:56:29.216Z,101679.89
2019-05-30T21:59:01.080Z,101677.28
2019-05-30T22:01:34.921Z,101677.28
2019-05-30T22:04:07.299Z,101667.27
2019-05-30T22:06:39.166Z,101673.83
2019-05-30T22:09:11.477Z,101677.29
2019-05-30T22:11:43.676Z,101669.64
2019-05-30T22:14:15.580Z,101670.63
2019-05-30T22:16:47.914Z,101671.75
2019-05-30T22:19:19.891Z,101671.75
2019-05-30T22:21:52.323Z,101682.35
2019-05-30T22:24:24.306Z,101681.75
2019-05-30T22:26:56.172Z,101681.75
2019-05-30T22:29:28.038Z,101679.53
2019-05-30T22:32:00.114Z,101679.53
2019-05-30T22:34:31.988Z,101673.73
2019-05-30T22:37:03.821Z,101674.74
2019-05-30T22:39:35.704Z,101674.86
2019-05-30T22:42:07.905Z,101671.27
2019-05-30T22:44:39.759Z,101671.27
2019-05-30T22:47:11.541Z,101675.84
2019-05-30T22:49:44.533Z,101674.14
2019-05-30T22:52:16.499Z,101672.41
2019-05-30T22:54:49.088Z,101675.01
2019-05-30T22:57:20.976Z,101671.42
2019-05-30T22:59:53.093Z,101669.69
2019-05-30T23:02:25.002Z,101669.67
2019-05-30T23:04:56.878Z,101675.47
2019-05-30T23:07:28.847Z,101675.47
2019-05-30T23:10:00.702Z,101670.54
2019-05-30T23:12:32.770Z,101670.54
2019-05-30T23:15:04.956Z,101674.48
2019-05-30T23:17:36.820Z,101673.49
2019-05-30T23:20:09.167Z,101661.67
2019-05-30T23:22:41.440Z,101661.67
2019-05-30T23:25:13.302Z,101671.29
2019-05-30T23:27:45.173Z,101661.30
2019-05-30T23:30:17.233Z,101661.30
2019-05-30T23:32:50.447Z,101660.18
2019-05-30T23:35:22.379Z,101665.33
2019-05-30T23:37:54.725Z,101668.79
2019-05-30T23:40:26.662Z,101670.52
2019-05-30T23:42:59.247Z,101671.63
2019-05-30T23:45:31.150Z,101666.14
2019-05-30T23:48:03.106Z,101662.17
2019-05-30T23:50:34.971Z,101662.69
2019-05-30T23:53:06.845Z,101664.66
2019-05-30T23:55:38.716Z,101667.13
2019-05-30T23:58:10.518Z,101659.94
